Time;durP1;ratioP1;P1;durP2;ratioP2;P2;SDS_P1;SDS_P2;PMS_P1;PMS_P2;Temp;Humidity;BMP_temperature;BMP_pressure;BME280_temperature;BME280_humidity;BME280_pressure;Samples;Min_cycle;Max_cycle;Signal;HPM_P1;HPM_P2
2023/12/05 00:02:15;;;;;;;17.65;15.85;;;2.30;99.90;;;;;;5044387;28;20783;-72
2023/12/05 00:04:42;;;;;;;18.13;16.30;;;2.30;99.90;;;;;;5050094;28;20757;-72
2023/12/05 00:07:09;;;;;;;18.63;16.63;;;2.40;99.90;;;;;;5040873;28;20444;-74
2023/12/05 00:09:35;;;;;;;17.67;15.88;;;2.40;99.90;;;;;;5044307;28;20433;-74
2023/12/05 00:12:02;;;;;;;17.98;16.17;;;2.40;99.90;;;;;;5042492;28;20426;-73
2023/12/05 00:14:29;;;;;;;18.00;16.10;;;2.40;99.90;;;;;;5048539;28;20436;-73
2023/12/05 00:16:57;;;;;;;18.50;16.60;;;2.40;99.90;;;;;;5044739;28;20413;-74
2023/12/05 00:19:24;;;;;;;19.17;17.17;;;2.40;99.90;;;;;;5044164;28;20414;-73
2023/12/05 00:21:51;;;;;;;18.10;16.20;;;2.40;99.90;;;;;;5044936;28;20454;-72
2023/12/05 00:24:18;;;;;;;19.08;17.08;;;2.40;99.90;;;;;;5043879;28;20435;-74
2023/12/05 00:26:44;;;;;;;18.33;16.20;;;2.40;99.90;;;;;;5038797;28;20436;-72
2023/12/05 00:29:11;;;;;;;18.65;16.75;;;2.40;99.90;;;;;;5044298;28;20416;-74
2023/12/05 00:31:38;;;;;;;19.20;17.30;;;2.50;99.90;;;;;;5051167;28;20414;-75
2023/12/05 00:34:06;;;;;;;19.15;16.85;;;2.50;99.90;;;;;;5051439;28;20420;-73
2023/12/05 00:36:33;;;;;;;19.48;17.38;;;2.50;99.90;;;;;;5043314;28;20420;-73
2023/12/05 00:38:59;;;;;;;18.98;16.98;;;2.50;99.90;;;;;;5042898;28;20437;-76
2023/12/05 00:41:26;;;;;;;20.75;17.95;;;2.50;99.90;;;;;;5042250;28;20608;-73
2023/12/05 00:43:53;;;;;;;19.73;17.10;;;2.50;99.90;;;;;;5044873;28;20413;-73
2023/12/05 00:46:21;;;;;;;19.30;17.08;;;2.50;99.90;;;;;;5044889;28;20436;-72
2023/12/05 00:48:47;;;;;;;19.45;17.35;;;2.50;99.90;;;;;;5039066;28;20426;-72
2023/12/05 00:51:15;;;;;;;18.98;16.98;;;2.50;99.90;;;;;;5043583;28;20402;-73
2023/12/05 00:53:42;;;;;;;19.38;17.08;;;2.50;99.90;;;;;;5041032;28;20429;-72
2023/12/05 00:56:11;;;;;;;20.92;18.48;;;2.50;99.90;;;;;;5044239;28;20420;-73
2023/12/05 00:58:38;;;;;;;21.17;18.30;;;2.50;99.90;;;;;;5045745;28;20413;-73
2023/12/05 01:01:05;;;;;;;20.38;17.90;;;2.50;99.90;;;;;;5044208;28;20521;-73
2023/12/05 01:03:32;;;;;;;19.10;16.97;;;2.50;99.90;;;;;;5044643;28;20432;-73
2023/12/05 01:05:58;;;;;;;19.88;17.77;;;2.60;99.90;;;;;;5045100;28;20588;-72
2023/12/05 01:08:27;;;;;;;20.10;17.80;;;2.60;99.90;;;;;;5049638;28;20437;-72
2023/12/05 01:10:53;;;;;;;19.70;17.60;;;2.60;99.90;;;;;;5044034;28;20437;-72
2023/12/05 01:13:20;;;;;;;20.40;17.88;;;2.60;99.90;;;;;;5044265;28;20757;-73
2023/12/05 01:15:47;;;;;;;20.08;17.88;;;2.60;99.90;;;;;;5048659;28;20413;-75
2023/12/05 01:18:13;;;;;;;20.00;17.88;;;2.70;99.90;;;;;;5043809;28;20422;-72
2023/12/05 01:20:40;;;;;;;19.47;17.40;;;2.70;99.90;;;;;;5056325;28;20411;-72
2023/12/05 01:23:07;;;;;;;19.60;17.30;;;2.70;99.90;;;;;;5048474;28;20437;-75
2023/12/05 01:25:35;;;;;;;21.50;19.20;;;2.70;99.90;;;;;;5044752;28;20646;-72
2023/12/05 01:28:02;;;;;;;19.70;17.60;;;2.70;99.90;;;;;;5046073;28;20417;-72
2023/12/05 01:30:29;;;;;;;20.95;18.23;;;2.70;99.90;;;;;;5047333;28;20437;-74
2023/12/05 01:32:56;;;;;;;19.70;17.60;;;2.80;99.90;;;;;;5042369;28;20465;-72
2023/12/05 01:35:22;;;;;;;19.73;17.63;;;2.80;99.90;;;;;;5044435;28;20884;-72
2023/12/05 01:37:49;;;;;;;19.45;17.45;;;2.80;99.90;;;;;;5044047;28;20448;-76
2023/12/05 01:40:16;;;;;;;20.45;18.27;;;2.80;99.90;;;;;;5048292;28;20878;-73
2023/12/05 01:42:45;;;;;;;19.40;17.38;;;2.80;99.90;;;;;;5043640;28;20480;-75
2023/12/05 01:45:12;;;;;;;19.30;17.23;;;2.80;99.90;;;;;;5041383;28;20913;-74
2023/12/05 01:47:41;;;;;;;20.93;17.80;;;2.80;99.90;;;;;;5045183;28;20421;-72
2023/12/05 01:50:11;;;;;;;20.45;18.25;;;2.80;99.90;;;;;;5043856;28;20409;-74
2023/12/05 01:52:40;;;;;;;20.73;17.50;;;2.90;99.90;;;;;;5042738;28;20451;-73
2023/12/05 01:55:08;;;;;;;20.02;17.80;;;2.80;99.90;;;;;;5043907;28;20792;-73
2023/12/05 01:57:35;;;;;;;19.75;17.60;;;2.90;99.90;;;;;;5045982;28;20839;-73
2023/12/05 02:00:05;;;;;;;20.73;18.45;;;2.90;99.90;;;;;;5046795;28;20414;-74
2023/12/05 02:02:32;;;;;;;21.42;19.10;;;2.80;99.90;;;;;;5042603;28;20442;-73
2023/12/05 02:04:59;;;;;;;20.05;17.70;;;2.90;99.90;;;;;;5046749;28;20440;-73
2023/12/05 02:07:26;;;;;;;20.35;17.17;;;2.80;99.90;;;;;;5046312;28;20551;-73
2023/12/05 02:09:53;;;;;;;20.42;18.10;;;2.90;99.90;;;;;;5044799;28;20528;-72
2023/12/05 02:12:19;;;;;;;20.63;17.80;;;2.80;99.90;;;;;;5051883;28;20417;-71
2023/12/05 02:14:46;;;;;;;20.65;18.38;;;2.80;99.90;;;;;;5047367;28;20421;-72
2023/12/05 02:17:24;;;;;;;20.38;18.17;;;2.80;99.90;;;;;;5047131;28;20409;-72
2023/12/05 02:19:59;;;;;;;20.80;18.20;;;2.90;99.90;;;;;;5047811;28;20508;-72
2023/12/05 02:22:56;;;;;;;21.58;17.73;;;2.90;99.90;;;;;;5042884;28;20431;-73
2023/12/05 02:25:33;;;;;;;20.10;18.00;;;2.90;99.90;;;;;;5046865;28;20441;-72
2023/12/05 02:28:02;;;;;;;20.05;16.88;;;2.90;99.90;;;;;;5050891;28;20432;-74
2023/12/05 02:30:28;;;;;;;20.42;17.75;;;2.90;99.90;;;;;;5047908;28;20455;-72
2023/12/05 02:32:55;;;;;;;20.55;17.10;;;2.90;99.90;;;;;;5046138;28;20428;-72
2023/12/05 02:35:22;;;;;;;19.27;17.27;;;2.90;99.90;;;;;;5045794;28;21265;-72
2023/12/05 02:37:57;;;;;;;18.52;16.40;;;2.90;99.90;;;;;;5045797;28;20437;-75
2023/12/05 02:40:30;;;;;;;19.48;17.20;;;3.00;99.90;;;;;;5047048;28;20516;-73
2023/12/05 02:42:58;;;;;;;19.90;16.80;;;2.90;99.90;;;;;;5045649;28;20500;-72
2023/12/05 02:45:30;;;;;;;18.45;16.33;;;3.00;99.90;;;;;;5044554;28;20455;-73
2023/12/05 02:47:59;;;;;;;18.63;15.80;;;3.00;99.90;;;;;;5045038;28;20465;-72
2023/12/05 02:50:25;;;;;;;18.50;16.50;;;3.00;99.90;;;;;;5045879;28;20543;-72
2023/12/05 02:52:52;;;;;;;18.98;15.88;;;3.00;99.90;;;;;;5043796;28;20429;-72
2023/12/05 02:55:19;;;;;;;17.90;15.63;;;3.00;99.90;;;;;;5043622;28;20600;-72
2023/12/05 02:57:45;;;;;;;18.05;15.70;;;3.00;99.90;;;;;;5044311;28;20432;-71
2023/12/05 03:00:13;;;;;;;18.23;15.77;;;3.10;99.90;;;;;;5043941;28;20425;-73
2023/12/05 03:02:41;;;;;;;18.95;16.42;;;3.10;99.90;;;;;;5045157;28;20516;-72
2023/12/05 03:05:09;;;;;;;18.52;16.40;;;3.10;99.90;;;;;;5057645;28;20505;-74
2023/12/05 03:07:36;;;;;;;17.98;15.75;;;3.10;99.90;;;;;;5061347;28;20668;-72
2023/12/05 03:10:04;;;;;;;17.65;15.60;;;3.10;99.90;;;;;;5058151;28;20512;-73
2023/12/05 03:12:33;;;;;;;17.73;15.87;;;3.10;99.90;;;;;;5045210;28;20443;-72
2023/12/05 03:15:00;;;;;;;18.90;16.90;;;3.20;99.90;;;;;;5049127;28;20505;-72
2023/12/05 03:17:26;;;;;;;17.55;15.52;;;3.20;99.90;;;;;;5047274;28;20405;-72
2023/12/05 03:19:55;;;;;;;18.45;16.45;;;3.20;99.90;;;;;;5045090;28;20827;-73
2023/12/05 03:22:21;;;;;;;17.75;15.45;;;3.20;99.90;;;;;;5049273;28;20437;-72
2023/12/05 03:24:50;;;;;;;17.65;15.45;;;3.20;99.90;;;;;;5044406;28;20579;-72
2023/12/05 03:27:16;;;;;;;16.85;14.88;;;3.20;99.90;;;;;;5044927;28;20540;-72
2023/12/05 03:29:43;;;;;;;16.40;14.70;;;3.20;99.90;;;;;;5044552;28;20464;-72
2023/12/05 03:32:10;;;;;;;17.02;14.40;;;3.20;99.90;;;;;;5044438;28;20810;-72
2023/12/05 03:34:37;;;;;;;16.50;14.75;;;3.30;99.90;;;;;;5043753;28;20424;-72
2023/12/05 03:37:05;;;;;;;17.15;15.25;;;3.30;99.90;;;;;;5042205;28;20436;-75
2023/12/05 03:39:32;;;;;;;16.85;14.90;;;3.30;99.90;;;;;;5046653;28;20440;-72
2023/12/05 03:41:58;;;;;;;16.35;14.65;;;3.30;99.90;;;;;;5046217;28;20432;-74
2023/12/05 03:44:24;;;;;;;16.60;14.88;;;3.30;99.90;;;;;;5045724;28;20452;-75
2023/12/05 03:46:51;;;;;;;18.67;16.03;;;3.40;99.90;;;;;;5043395;28;20475;-74
2023/12/05 03:49:17;;;;;;;16.60;14.90;;;3.40;99.90;;;;;;5043844;28;20651;-74
2023/12/05 03:51:44;;;;;;;15.63;13.93;;;3.40;99.90;;;;;;5044099;28;20886;-73
2023/12/05 03:54:12;;;;;;;15.98;14.13;;;3.40;99.90;;;;;;5043582;28;20420;-73
2023/12/05 03:56:39;;;;;;;16.45;14.43;;;3.50;99.90;;;;;;5044738;28;20409;-73
2023/12/05 03:59:06;;;;;;;16.67;14.88;;;3.50;99.90;;;;;;5043089;28;20436;-75
2023/12/05 04:01:32;;;;;;;17.23;15.10;;;3.50;99.90;;;;;;5042630;28;20876;-73
2023/12/05 04:03:59;;;;;;;17.08;14.10;;;3.50;99.90;;;;;;5044250;28;20413;-73
2023/12/05 04:06:26;;;;;;;16.50;14.77;;;3.50;99.90;;;;;;5041676;28;20433;-75
2023/12/05 04:08:53;;;;;;;17.85;14.63;;;3.50;99.90;;;;;;5046812;28;20405;-73
2023/12/05 04:11:29;;;;;;;15.73;13.68;;;3.50;99.90;;;;;;5044243;28;20894;-75
2023/12/05 04:13:56;;;;;;;15.70;13.82;;;3.60;99.90;;;;;;5041975;28;20421;-75
2023/12/05 04:16:22;;;;;;;16.30;14.00;;;3.60;99.90;;;;;;5047012;28;20469;-73
2023/12/05 04:18:49;;;;;;;15.55;13.95;;;3.60;99.90;;;;;;5042635;28;20496;-74
2023/12/05 04:21:17;;;;;;;16.67;14.00;;;3.60;99.90;;;;;;5042747;28;20429;-75
2023/12/05 04:23:44;;;;;;;15.80;14.10;;;3.70;99.90;;;;;;5046095;28;20424;-74
2023/12/05 04:26:14;;;;;;;14.80;13.30;;;3.70;99.90;;;;;;5046424;28;20436;-74
2023/12/05 04:28:42;;;;;;;16.00;14.30;;;3.70;99.90;;;;;;5044863;28;20469;-73
2023/12/05 04:31:09;;;;;;;15.75;13.75;;;3.80;99.90;;;;;;5044900;28;20421;-73
2023/12/05 04:33:36;;;;;;;15.88;13.50;;;3.80;99.90;;;;;;5044981;28;20413;-74
2023/12/05 04:36:02;;;;;;;16.80;15.00;;;3.80;99.90;;;;;;5049933;28;20604;-74
2023/12/05 04:38:29;;;;;;;15.93;14.10;;;3.80;99.90;;;;;;5045576;28;20448;-73
2023/12/05 04:40:56;;;;;;;17.35;14.52;;;3.80;99.90;;;;;;5045379;28;20417;-73
2023/12/05 04:43:23;;;;;;;16.80;13.65;;;3.80;99.90;;;;;;5043775;28;20425;-73
2023/12/05 04:45:51;;;;;;;16.50;14.35;;;3.80;99.90;;;;;;5044217;28;20416;-74
2023/12/05 04:48:18;;;;;;;15.90;14.30;;;3.80;99.90;;;;;;5045185;28;20498;-74
2023/12/05 04:50:44;;;;;;;14.65;13.05;;;3.80;99.90;;;;;;5047552;28;20445;-74
2023/12/05 04:53:11;;;;;;;14.88;12.93;;;3.90;99.90;;;;;;5044769;28;20410;-73
2023/12/05 04:55:38;;;;;;;15.23;13.63;;;3.90;99.90;;;;;;5043750;28;20417;-73
2023/12/05 04:58:05;;;;;;;15.75;12.85;;;3.80;99.90;;;;;;5048291;28;20434;-77
2023/12/05 05:00:32;;;;;;;14.85;13.18;;;3.80;99.90;;;;;;5042989;28;20767;-73
2023/12/05 05:03:00;;;;;;;15.45;13.13;;;3.90;99.90;;;;;;5042109;28;20484;-74
2023/12/05 05:05:27;;;;;;;15.93;13.40;;;3.90;99.90;;;;;;5040511;28;20422;-74
2023/12/05 05:07:54;;;;;;;14.80;13.30;;;3.90;99.90;;;;;;5041889;28;20433;-74
2023/12/05 05:10:21;;;;;;;14.93;13.43;;;3.90;99.90;;;;;;5042073;28;20425;-75
2023/12/05 05:12:47;;;;;;;15.73;13.50;;;4.00;99.90;;;;;;5042150;28;20417;-73
2023/12/05 05:15:14;;;;;;;16.17;13.65;;;3.90;99.90;;;;;;5042104;28;20413;-73
2023/12/05 05:17:41;;;;;;;18.60;14.30;;;4.00;99.90;;;;;;5043384;28;20492;-75
2023/12/05 05:20:10;;;;;;;14.48;12.70;;;4.00;99.90;;;;;;5048975;28;20662;-73
2023/12/05 05:22:37;;;;;;;14.45;12.68;;;4.00;99.90;;;;;;5054869;28;20726;-75
2023/12/05 05:25:04;;;;;;;14.90;12.97;;;4.00;99.90;;;;;;5058270;28;20496;-74
2023/12/05 05:27:30;;;;;;;14.48;12.20;;;4.10;99.90;;;;;;5046162;28;20679;-73
2023/12/05 05:29:57;;;;;;;13.18;11.63;;;4.10;99.90;;;;;;5042696;28;20404;-74
2023/12/05 05:32:24;;;;;;;14.30;12.80;;;4.10;99.90;;;;;;5042794;28;20878;-74
2023/12/05 05:34:51;;;;;;;13.68;12.05;;;4.20;99.90;;;;;;5045343;28;20516;-73
2023/12/05 05:37:19;;;;;;;13.52;12.05;;;4.20;99.90;;;;;;5046054;28;20459;-74
2023/12/05 05:39:47;;;;;;;14.00;11.60;;;4.30;99.90;;;;;;5045344;28;20941;-75
2023/12/05 05:42:14;;;;;;;13.27;11.93;;;4.30;99.90;;;;;;5046668;28;20456;-74
2023/12/05 05:44:40;;;;;;;14.10;12.25;;;4.30;99.90;;;;;;5039999;28;20413;-73
2023/12/05 05:47:07;;;;;;;13.18;11.77;;;4.30;99.90;;;;;;5047612;28;20433;-74
2023/12/05 05:49:34;;;;;;;13.07;11.77;;;4.30;99.90;;;;;;5044106;28;20429;-73
2023/12/05 05:52:01;;;;;;;13.02;11.73;;;4.30;99.90;;;;;;5044616;28;20544;-73
2023/12/05 05:54:29;;;;;;;13.23;11.70;;;4.30;99.90;;;;;;5045368;28;20629;-74
2023/12/05 05:56:56;;;;;;;13.85;12.30;;;4.30;99.90;;;;;;5042821;28;20413;-74
2023/12/05 05:59:22;;;;;;;12.27;10.90;;;4.40;99.90;;;;;;5047065;28;20408;-73
2023/12/05 06:01:49;;;;;;;12.20;11.00;;;4.40;99.90;;;;;;5042429;28;20440;-73
2023/12/05 06:04:16;;;;;;;12.93;10.63;;;4.50;99.90;;;;;;5044581;28;20417;-75
2023/12/05 06:06:43;;;;;;;11.45;10.25;;;4.50;99.90;;;;;;5039974;28;20433;-74
2023/12/05 06:09:10;;;;;;;12.80;11.00;;;4.50;99.90;;;;;;5045313;28;20503;-73
2023/12/05 06:11:38;;;;;;;11.45;10.25;;;4.50;99.90;;;;;;5044925;28;20409;-73
2023/12/05 06:14:05;;;;;;;12.10;10.63;;;4.50;99.90;;;;;;5048660;28;20413;-73
2023/12/05 06:16:32;;;;;;;10.90;9.85;;;4.60;99.90;;;;;;5049479;28;20899;-76
2023/12/05 06:18:58;;;;;;;10.77;9.68;;;4.60;99.90;;;;;;5057957;28;20425;-73
2023/12/05 06:21:25;;;;;;;10.45;9.45;;;4.60;99.90;;;;;;5061909;28;20397;-74
2023/12/05 06:23:54;;;;;;;10.10;9.10;;;4.70;99.90;;;;;;5062146;28;20445;-76
2023/12/05 06:26:20;;;;;;;10.20;9.20;;;4.70;99.90;;;;;;5059765;28;20430;-71
2023/12/05 06:28:48;;;;;;;10.13;9.07;;;4.70;99.90;;;;;;5053076;28;20453;-74
2023/12/05 06:31:15;;;;;;;12.77;9.57;;;4.70;99.90;;;;;;5058926;28;20733;-71
2023/12/05 06:33:42;;;;;;;9.60;8.70;;;4.70;99.90;;;;;;5061703;28;20476;-72
2023/12/05 06:36:10;;;;;;;9.30;8.40;;;4.80;99.90;;;;;;5060159;28;20421;-75
2023/12/05 06:38:36;;;;;;;10.80;9.00;;;4.80;99.90;;;;;;5059158;28;20590;-71
2023/12/05 06:41:04;;;;;;;9.90;8.68;;;4.80;99.90;;;;;;5059801;28;20468;-73
2023/12/05 06:43:30;;;;;;;9.40;8.20;;;4.80;99.90;;;;;;5061199;28;20428;-74
2023/12/05 06:45:58;;;;;;;10.18;8.27;;;4.80;99.90;;;;;;5059388;28;20406;-76
2023/12/05 06:48:25;;;;;;;8.45;7.60;;;4.90;99.90;;;;;;5064557;28;20431;-74
2023/12/05 06:50:52;;;;;;;8.90;8.10;;;4.90;99.90;;;;;;5060351;28;20968;-74
2023/12/05 06:53:18;;;;;;;9.30;8.40;;;4.90;99.90;;;;;;5057546;28;20451;-72
2023/12/05 06:55:46;;;;;;;10.73;9.07;;;4.90;99.90;;;;;;5062287;28;20526;-76
2023/12/05 06:58:13;;;;;;;9.07;8.18;;;4.90;99.90;;;;;;5057286;28;20500;-74
2023/12/05 07:00:40;;;;;;;8.68;7.88;;;4.90;99.90;;;;;;5059180;28;20451;-73
2023/12/05 07:03:08;;;;;;;8.18;7.38;;;4.90;99.90;;;;;;5055915;28;20427;-72
2023/12/05 07:05:35;;;;;;;8.27;7.37;;;5.00;99.90;;;;;;5053906;28;20885;-73
2023/12/05 07:08:02;;;;;;;8.13;7.32;;;5.00;99.90;;;;;;5078413;22;20451;-73
2023/12/05 07:10:28;;;;;;;8.10;7.30;;;5.00;99.90;;;;;;5066196;28;20407;-72
2023/12/05 07:12:55;;;;;;;7.70;6.90;;;5.00;99.90;;;;;;5062349;28;20405;-72
2023/12/05 07:15:22;;;;;;;8.07;7.20;;;5.00;99.90;;;;;;5057485;28;20764;-64
2023/12/05 07:17:49;;;;;;;7.72;7.03;;;5.00;99.90;;;;;;5085030;28;20400;-65
2023/12/05 07:20:17;;;;;;;8.20;6.88;;;5.00;99.90;;;;;;5088827;28;20433;-64
2023/12/05 07:22:44;;;;;;;8.00;7.18;;;5.10;99.90;;;;;;5083731;28;20453;-70
2023/12/05 07:25:11;;;;;;;7.78;6.97;;;5.10;99.90;;;;;;5095574;28;20404;-62
2023/12/05 07:27:38;;;;;;;8.10;7.30;;;5.10;99.90;;;;;;5098302;28;20431;-64
2023/12/05 07:30:07;;;;;;;7.73;6.67;;;5.10;99.90;;;;;;5089519;28;20486;-73
2023/12/05 07:32:34;;;;;;;7.40;6.70;;;5.20;99.90;;;;;;5091627;28;20840;-73
2023/12/05 07:35:01;;;;;;;7.13;6.43;;;5.20;99.90;;;;;;5096079;28;20417;-73
2023/12/05 07:37:29;;;;;;;7.57;6.88;;;5.20;99.90;;;;;;5076885;28;20554;-73
2023/12/05 07:39:56;;;;;;;7.25;6.55;;;5.20;99.90;;;;;;5084807;28;21034;-73
2023/12/05 07:42:22;;;;;;;6.63;6.03;;;5.20;99.90;;;;;;5084483;28;20704;-72
2023/12/05 07:44:49;;;;;;;6.95;6.25;;;5.20;99.90;;;;;;5096703;28;20414;-72
2023/12/05 07:47:16;;;;;;;6.68;6.07;;;5.20;99.90;;;;;;5098092;28;20431;-71
2023/12/05 07:49:44;;;;;;;7.90;6.18;;;5.20;99.90;;;;;;5084565;28;20436;-73
2023/12/05 07:52:11;;;;;;;6.70;6.10;;;5.20;99.90;;;;;;5100182;28;20497;-73
2023/12/05 07:54:39;;;;;;;6.13;5.53;;;5.30;99.90;;;;;;5083003;28;20904;-72
2023/12/05 07:57:06;;;;;;;6.10;5.38;;;5.30;99.90;;;;;;5095604;28;20406;-72
2023/12/05 07:59:32;;;;;;;5.80;5.30;;;5.30;99.90;;;;;;5094471;28;20386;-73
2023/12/05 08:01:59;;;;;;;6.13;5.53;;;5.30;99.90;;;;;;5111461;28;20419;-74
2023/12/05 08:04:26;;;;;;;6.43;5.82;;;5.40;99.90;;;;;;5103695;28;20435;-73
2023/12/05 08:06:53;;;;;;;6.57;5.28;;;5.40;99.90;;;;;;5097473;28;20427;-74
2023/12/05 08:09:20;;;;;;;6.10;5.50;;;5.40;99.90;;;;;;5095342;28;20414;-73
2023/12/05 08:11:48;;;;;;;5.82;5.32;;;5.50;99.90;;;;;;5098738;28;20449;-74
2023/12/05 08:14:15;;;;;;;5.53;5.00;;;5.50;99.90;;;;;;5099410;28;20396;-74
2023/12/05 08:16:42;;;;;;;7.90;6.10;;;5.60;99.90;;;;;;5099868;28;20432;-74
2023/12/05 08:19:09;;;;;;;5.63;5.13;;;5.60;99.90;;;;;;5080298;28;20432;-74
2023/12/05 08:21:35;;;;;;;5.72;5.22;;;5.60;99.90;;;;;;5076732;28;20788;-72
2023/12/05 08:24:02;;;;;;;5.70;5.20;;;5.60;99.90;;;;;;5083050;28;20440;-73
2023/12/05 08:26:29;;;;;;;5.70;5.10;;;5.60;99.90;;;;;;5091623;28;20410;-73
2023/12/05 08:28:58;;;;;;;5.38;4.82;;;5.70;99.90;;;;;;5080774;28;20436;-72
2023/12/05 08:31:26;;;;;;;5.70;5.00;;;5.70;99.90;;;;;;5086161;28;20425;-74
2023/12/05 08:33:53;;;;;;;4.82;4.32;;;5.70;99.90;;;;;;5085123;28;20423;-74
2023/12/05 08:36:20;;;;;;;5.45;4.85;;;5.70;99.90;;;;;;5079050;28;20453;-73
2023/12/05 08:38:46;;;;;;;4.90;4.40;;;5.80;99.90;;;;;;5084583;28;20416;-73
2023/12/05 08:41:18;;;;;;;5.32;4.82;;;5.80;99.90;;;;;;5084079;28;20433;-73
2023/12/05 08:43:44;;;;;;;6.07;5.32;;;5.80;99.90;;;;;;5092227;28;21601;-73
2023/12/05 08:46:13;;;;;;;5.13;4.63;;;5.80;99.90;;;;;;5084301;28;20418;-73
2023/12/05 08:48:39;;;;;;;5.10;4.43;;;5.80;99.90;;;;;;5103314;28;20427;-72
2023/12/05 08:51:07;;;;;;;4.95;4.45;;;5.90;99.90;;;;;;5085552;28;20453;-73
2023/12/05 08:53:33;;;;;;;5.00;4.40;;;5.90;99.90;;;;;;5093368;28;20408;-72
2023/12/05 08:56:00;;;;;;;4.40;4.00;;;5.90;99.90;;;;;;5095605;28;20411;-74
2023/12/05 08:58:27;;;;;;;4.50;4.10;;;5.90;99.90;;;;;;5082964;28;20912;-73
2023/12/05 09:00:54;;;;;;;5.47;3.97;;;6.00;99.90;;;;;;5101614;28;20408;-73
2023/12/05 09:03:22;;;;;;;5.10;4.20;;;6.00;99.90;;;;;;5080355;28;20554;-73
2023/12/05 09:05:48;;;;;;;4.60;4.20;;;6.00;99.90;;;;;;5085085;28;20518;-72
2023/12/05 09:08:15;;;;;;;5.00;4.60;;;6.00;99.90;;;;;;5096465;28;20433;-72
2023/12/05 09:10:42;;;;;;;4.53;4.13;;;6.00;99.90;;;;;;5094912;28;20414;-72
2023/12/05 09:13:09;;;;;;;4.60;4.05;;;6.00;99.90;;;;;;5084770;28;20406;-72
2023/12/05 09:15:36;;;;;;;4.03;3.67;;;6.00;99.90;;;;;;5079528;28;20418;-72
2023/12/05 09:18:02;;;;;;;5.25;4.35;;;6.00;99.90;;;;;;5078223;28;20451;-72
2023/12/05 09:20:30;;;;;;;4.40;4.00;;;6.00;99.90;;;;;;5091458;28;20440;-72
2023/12/05 09:22:57;;;;;;;7.40;4.68;;;6.10;99.90;;;;;;5095877;28;20442;-72
2023/12/05 09:25:24;;;;;;;4.50;3.90;;;6.10;99.90;;;;;;5079327;28;20427;-72
2023/12/05 09:27:51;;;;;;;4.40;4.00;;;6.10;99.90;;;;;;5102541;28;20424;-67
2023/12/05 09:30:18;;;;;;;4.30;3.90;;;6.20;99.90;;;;;;5101804;28;20409;-72
2023/12/05 09:32:45;;;;;;;4.38;3.97;;;6.10;99.90;;;;;;5102267;28;20411;-71
2023/12/05 09:35:12;;;;;;;4.63;4.00;;;6.20;99.90;;;;;;5087848;28;20454;-71
2023/12/05 09:37:40;;;;;;;5.10;3.90;;;6.20;99.90;;;;;;5093334;28;20426;-70
2023/12/05 09:40:08;;;;;;;4.40;4.00;;;6.20;99.90;;;;;;5102042;28;20406;-70
2023/12/05 09:42:36;;;;;;;4.75;4.30;;;6.20;99.90;;;;;;5094309;28;20501;-70
2023/12/05 09:45:05;;;;;;;3.80;3.40;;;6.30;99.90;;;;;;5101504;28;20417;-71
2023/12/05 09:47:33;;;;;;;3.83;3.50;;;6.30;99.90;;;;;;5096423;28;20485;-70
2023/12/05 09:50:00;;;;;;;4.30;3.50;;;6.30;99.90;;;;;;5101391;28;20429;-70
2023/12/05 09:52:27;;;;;;;3.40;3.10;;;6.30;99.90;;;;;;5099228;28;20429;-70
2023/12/05 09:54:56;;;;;;;3.70;3.17;;;6.30;99.90;;;;;;5084854;28;20469;-70
2023/12/05 09:57:23;;;;;;;3.80;3.30;;;6.30;99.90;;;;;;5077764;28;20416;-70
2023/12/05 09:59:49;;;;;;;3.42;3.13;;;6.30;99.90;;;;;;5097434;28;20416;-69
2023/12/05 10:02:19;;;;;;;4.60;3.43;;;6.30;99.90;;;;;;5099400;28;21005;-70
2023/12/05 10:04:47;;;;;;;3.85;3.10;;;6.40;99.90;;;;;;5104028;28;20937;-71
2023/12/05 10:07:14;;;;;;;2.70;2.50;;;6.40;99.90;;;;;;5100148;28;20408;-73
2023/12/05 10:09:41;;;;;;;3.60;2.60;;;6.40;99.90;;;;;;5086710;28;20439;-73
2023/12/05 10:12:11;;;;;;;3.22;2.92;;;6.40;99.90;;;;;;5094714;28;20420;-71
2023/12/05 10:14:39;;;;;;;3.70;2.90;;;6.40;99.90;;;;;;5092197;28;20494;-75
2023/12/05 10:17:07;;;;;;;3.40;3.10;;;6.50;99.90;;;;;;5096202;28;20902;-74
2023/12/05 10:19:34;;;;;;;3.60;2.90;;;6.50;99.90;;;;;;5090004;28;20504;-72
2023/12/05 10:22:02;;;;;;;3.17;2.87;;;6.50;99.90;;;;;;5092594;28;20475;-72
2023/12/05 10:24:40;;;;;;;3.40;3.00;;;6.50;99.90;;;;;;5074331;28;20473;-73
2023/12/05 10:27:08;;;;;;;2.75;2.55;;;6.50;99.90;;;;;;5097207;28;20482;-72
2023/12/05 10:29:39;;;;;;;2.90;2.33;;;6.60;99.90;;;;;;5100784;28;20428;-72
2023/12/05 10:32:06;;;;;;;3.47;2.60;;;6.70;99.90;;;;;;5085332;28;20402;-73
2023/12/05 10:34:46;;;;;;;3.25;2.60;;;6.70;99.90;;;;;;5088151;28;20422;-73
2023/12/05 10:37:13;;;;;;;3.88;2.90;;;6.70;99.90;;;;;;5084303;28;20885;-73
2023/12/05 10:39:39;;;;;;;3.88;2.55;;;6.70;99.90;;;;;;5101672;28;20411;-73
2023/12/05 10:42:08;;;;;;;4.38;2.90;;;6.80;99.90;;;;;;5083981;28;20430;-72
2023/12/05 10:44:39;;;;;;;4.03;2.97;;;6.80;99.90;;;;;;5092811;28;20432;-73
2023/12/05 10:47:07;;;;;;;3.75;2.97;;;6.90;99.90;;;;;;5094060;28;20413;-73
2023/12/05 10:49:34;;;;;;;2.90;2.70;;;6.90;99.90;;;;;;5082221;28;20775;-72
2023/12/05 10:52:03;;;;;;;3.65;2.70;;;6.90;99.90;;;;;;5089341;28;20407;-73
2023/12/05 10:54:30;;;;;;;2.83;2.60;;;7.00;99.90;;;;;;5082141;28;20418;-73
2023/12/05 10:56:57;;;;;;;4.05;2.65;;;7.00;99.90;;;;;;5075213;28;20416;-73
2023/12/05 10:59:25;;;;;;;3.88;3.00;;;7.00;99.90;;;;;;5084546;28;20838;-75
2023/12/05 11:01:55;;;;;;;3.53;2.75;;;7.00;99.90;;;;;;5090579;28;20787;-76
2023/12/05 11:04:22;;;;;;;4.60;2.88;;;6.90;99.90;;;;;;5095049;28;20410;-73
2023/12/05 11:06:49;;;;;;;2.95;2.55;;;6.90;99.90;;;;;;5090325;28;20912;-73
2023/12/05 11:09:17;;;;;;;4.90;2.90;;;6.90;99.90;;;;;;5099179;28;21079;-74
2023/12/05 11:11:46;;;;;;;3.38;3.08;;;6.90;99.90;;;;;;5091550;28;20424;-74
2023/12/05 11:14:15;;;;;;;4.07;3.13;;;6.90;99.90;;;;;;5088725;28;20445;-74
2023/12/05 11:16:48;;;;;;;3.60;2.95;;;6.90;99.90;;;;;;5080877;28;20435;-73
2023/12/05 11:19:29;;;;;;;3.65;2.40;;;6.90;99.90;;;;;;5088722;28;20402;-73
2023/12/05 11:22:06;;;;;;;2.90;2.60;;;6.90;99.90;;;;;;5086726;28;20952;-73
2023/12/05 11:24:51;;;;;;;1.88;1.50;;;7.00;99.90;;;;;;5091999;28;20418;-73
2023/12/05 11:27:36;;;;;;;2.10;1.50;;;7.00;99.90;;;;;;5087852;28;20417;-73
2023/12/05 11:30:25;;;;;;;2.00;1.00;;;6.90;99.90;;;;;;5086086;28;20800;-72
2023/12/05 11:33:00;;;;;;;1.67;1.30;;;6.90;99.90;;;;;;5082737;28;20912;-73
2023/12/05 11:35:37;;;;;;;1.60;1.20;;;6.90;99.90;;;;;;5090558;28;20436;-73
2023/12/05 11:38:10;;;;;;;1.95;1.00;;;6.80;99.90;;;;;;5091184;28;20433;-73
2023/12/05 11:40:37;;;;;;;2.25;1.20;;;6.80;99.90;;;;;;5091870;28;20794;-73
2023/12/05 11:43:08;;;;;;;1.90;1.40;;;6.80;99.90;;;;;;5091303;28;20421;-72
2023/12/05 11:45:38;;;;;;;2.00;1.35;;;6.70;99.90;;;;;;5097015;28;20408;-73
2023/12/05 11:48:05;;;;;;;2.50;1.98;;;6.70;99.90;;;;;;5085024;28;20434;-73
2023/12/05 11:50:41;;;;;;;2.05;1.17;;;6.60;99.90;;;;;;5090826;28;20452;-73
2023/12/05 11:53:08;;;;;;;2.55;1.20;;;6.60;99.90;;;;;;5095907;28;20898;-65
2023/12/05 11:55:36;;;;;;;2.33;1.40;;;6.70;99.90;;;;;;5083184;28;20411;-73
2023/12/05 11:58:02;;;;;;;2.22;1.40;;;6.70;99.90;;;;;;5089917;28;20421;-76
2023/12/05 12:00:31;;;;;;;1.35;1.00;;;6.80;99.90;;;;;;5093807;28;20397;-74
2023/12/05 12:02:59;;;;;;;1.90;0.90;;;6.80;99.90;;;;;;5084004;28;20440;-73
2023/12/05 12:05:25;;;;;;;2.35;0.80;;;6.80;99.90;;;;;;5102724;28;20483;-74
2023/12/05 12:07:56;;;;;;;2.70;1.40;;;6.70;99.90;;;;;;5092949;28;20416;-73
2023/12/05 12:10:24;;;;;;;1.70;0.90;;;6.70;99.90;;;;;;5091712;28;20426;-74
2023/12/05 12:12:51;;;;;;;3.80;1.03;;;6.70;99.90;;;;;;5094815;28;20426;-74
2023/12/05 12:15:19;;;;;;;2.00;0.80;;;6.70;99.90;;;;;;5094012;28;20833;-74
2023/12/05 12:17:46;;;;;;;3.70;2.33;;;6.70;99.90;;;;;;5082539;28;20435;-73
2023/12/05 12:20:14;;;;;;;3.15;1.35;;;6.70;99.90;;;;;;5086635;28;20413;-73
2023/12/05 12:22:41;;;;;;;1.40;0.90;;;6.70;99.90;;;;;;5083447;28;20487;-73
2023/12/05 12:25:11;;;;;;;1.80;0.90;;;6.70;99.90;;;;;;5087751;28;20430;-73
2023/12/05 12:27:39;;;;;;;1.98;1.00;;;6.70;99.90;;;;;;5095712;28;20492;-72
2023/12/05 12:30:08;;;;;;;1.33;1.00;;;6.70;99.90;;;;;;5084931;28;20436;-72
2023/12/05 12:32:36;;;;;;;1.60;0.73;;;6.70;99.90;;;;;;5092444;28;20920;-73
2023/12/05 12:35:03;;;;;;;1.80;1.00;;;6.70;99.90;;;;;;5098449;28;20907;-74
2023/12/05 12:37:29;;;;;;;2.08;1.08;;;6.70;99.90;;;;;;5075414;28;20417;-73
2023/12/05 12:39:56;;;;;;;4.32;1.25;;;6.70;99.90;;;;;;5079279;28;20800;-74
2023/12/05 12:42:26;;;;;;;4.53;1.10;;;6.70;99.90;;;;;;5089066;28;20783;-73
2023/12/05 12:44:53;;;;;;;3.37;1.20;;;6.70;99.90;;;;;;5094345;28;20405;-73
2023/12/05 12:47:20;;;;;;;2.53;1.70;;;6.70;99.90;;;;;;5075033;28;20434;-74
2023/12/05 12:49:46;;;;;;;1.95;1.10;;;6.70;99.90;;;;;;5086145;28;20945;-74
2023/12/05 12:52:14;;;;;;;2.20;1.48;;;6.70;99.90;;;;;;5081447;28;20425;-73